createdAt,value
2022-12-18T00:01:17.257Z,4.80
2022-12-18T00:03:45.610Z,4.87
2022-12-18T00:06:14.877Z,5.17
2022-12-18T00:08:42.518Z,4.93
2022-12-18T00:11:12.831Z,5.53
2022-12-18T00:13:41.264Z,5.47
2022-12-18T00:16:12.512Z,4.60
2022-12-18T00:18:40.810Z,4.87
2022-12-18T00:21:09.948Z,4.13
2022-12-18T00:23:38.525Z,5.27
2022-12-18T00:26:07.318Z,5.03
2022-12-18T00:28:35.343Z,6.10
2022-12-18T00:31:03.299Z,6.10
2022-12-18T00:33:32.428Z,5.70
2022-12-18T00:36:02.641Z,5.90
2022-12-18T00:38:30.252Z,5.27
2022-12-18T00:40:57.933Z,6.30
2022-12-18T00:43:24.688Z,5.67
2022-12-18T00:45:52.621Z,5.90
2022-12-18T00:48:20.285Z,5.57
2022-12-18T00:50:49.607Z,5.97
2022-12-18T00:53:17.443Z,5.10
2022-12-18T00:55:45.600Z,4.53
2022-12-18T00:58:14.272Z,4.97
2022-12-18T01:00:42.399Z,5.27
2022-12-18T01:03:10.231Z,5.30
2022-12-18T01:05:41.213Z,5.50
2022-12-18T01:08:10.222Z,5.30
2022-12-18T01:10:37.899Z,5.83
2022-12-18T01:13:05.566Z,5.87
2022-12-18T01:15:33.609Z,5.50
2022-12-18T01:18:01.824Z,5.57
2022-12-18T01:20:29.684Z,5.80
2022-12-18T01:22:57.339Z,5.67
2022-12-18T01:25:26.333Z,5.70
2022-12-18T01:27:54.100Z,6.10
2022-12-18T01:30:21.758Z,5.73
2022-12-18T01:32:49.389Z,5.53
2022-12-18T01:35:17.221Z,6.03
2022-12-18T01:37:44.833Z,5.60
2022-12-18T01:40:12.651Z,6.47
2022-12-18T01:42:41.838Z,6.60
2022-12-18T01:45:24.648Z,7.00
2022-12-18T01:47:53.615Z,6.87
2022-12-18T01:50:22.435Z,7.00
2022-12-18T01:52:52.024Z,6.67
2022-12-18T01:55:21.331Z,6.73
2022-12-18T01:57:51.654Z,7.50
2022-12-18T02:00:20.530Z,6.23
2022-12-18T02:02:49.013Z,6.90
2022-12-18T02:05:18.606Z,6.60
2022-12-18T02:07:51.716Z,7.30
2022-12-18T02:10:21.939Z,5.83
2022-12-18T02:12:54.882Z,6.33
2022-12-18T02:15:26.327Z,6.90
2022-12-18T02:17:56.757Z,6.10
2022-12-18T02:20:26.710Z,5.50
2022-12-18T02:23:03.158Z,5.20
2022-12-18T02:25:38.091Z,5.53
2022-12-18T02:28:09.295Z,6.33
2022-12-18T02:30:37.528Z,5.70
2022-12-18T02:33:06.981Z,5.87
2022-12-18T02:35:35.547Z,5.43
2022-12-18T02:38:03.916Z,4.90
2022-12-18T02:40:32.146Z,5.33
2022-12-18T02:43:04.442Z,5.73
2022-12-18T02:45:33.534Z,4.90
2022-12-18T02:48:01.254Z,5.30
2022-12-18T02:50:32.799Z,4.30
2022-12-18T02:53:06.003Z,5.87
2022-12-18T02:55:41.743Z,5.97
2022-12-18T02:58:14.867Z,5.50
2022-12-18T03:00:46.274Z,5.70
2022-12-18T03:03:16.970Z,6.17
2022-12-18T03:05:46.810Z,6.10
2022-12-18T03:08:17.977Z,6.23
2022-12-18T03:10:47.901Z,6.37
2022-12-18T03:13:16.258Z,5.47
2022-12-18T03:15:47.911Z,6.90
2022-12-18T03:18:24.751Z,6.47
2022-12-18T03:20:53.952Z,6.37
2022-12-18T03:23:26.264Z,7.03
2022-12-18T03:25:56.985Z,5.87
2022-12-18T03:28:25.049Z,5.70
2022-12-18T03:30:57.847Z,6.93
2022-12-18T03:33:27.982Z,5.83
2022-12-18T03:35:55.628Z,6.30
2022-12-18T03:38:23.400Z,5.73
2022-12-18T03:40:55.894Z,5.83
2022-12-18T03:43:31.801Z,5.87
2022-12-18T03:46:03.326Z,6.37
2022-12-18T03:48:33.490Z,7.20
2022-12-18T03:51:03.601Z,6.00
2022-12-18T03:53:35.521Z,5.87
2022-12-18T03:56:04.238Z,6.83
2022-12-18T03:58:32.734Z,6.27
2022-12-18T04:01:04.417Z,5.23
2022-12-18T04:03:33.894Z,5.87
2022-12-18T04:06:02.266Z,6.33
2022-12-18T04:08:30.374Z,6.03
2022-12-18T04:10:58.036Z,6.50
2022-12-18T04:13:26.085Z,4.90
2022-12-18T04:15:53.850Z,7.03
2022-12-18T04:18:22.881Z,6.57
2022-12-18T04:20:50.473Z,5.73
2022-12-18T04:23:18.207Z,5.97
2022-12-18T04:25:45.896Z,6.23
2022-12-18T04:28:13.811Z,6.67
2022-12-18T04:30:41.595Z,7.70
2022-12-18T04:33:10.560Z,7.53
2022-12-18T04:35:39.597Z,6.27
2022-12-18T04:38:07.804Z,6.57
2022-12-18T04:40:38.908Z,6.37
2022-12-18T04:43:06.978Z,6.47
2022-12-18T04:45:35.138Z,6.83
2022-12-18T04:48:03.195Z,7.67
2022-12-18T04:50:30.899Z,7.23
2022-12-18T04:53:00.011Z,7.10
2022-12-18T04:55:27.764Z,7.27
2022-12-18T04:57:55.434Z,7.67
2022-12-18T05:00:23.595Z,7.97
2022-12-18T05:02:51.350Z,7.90
2022-12-18T05:05:19.096Z,8.40
2022-12-18T05:07:46.783Z,7.67
2022-12-18T05:10:15.806Z,7.93
2022-12-18T05:12:57.381Z,8.27
2022-12-18T05:15:25.122Z,8.63
2022-12-18T05:17:53.339Z,8.47
2022-12-18T05:20:21.069Z,8.53
2022-12-18T05:22:48.752Z,9.37
2022-12-18T05:25:18.015Z,8.27
2022-12-18T05:27:45.990Z,9.40
2022-12-18T05:30:14.341Z,7.97
2022-12-18T05:32:42.058Z,9.50
2022-12-18T05:35:10.619Z,9.33
2022-12-18T05:37:42.699Z,9.90
2022-12-18T05:40:11.760Z,9.67
2022-12-18T05:42:40.796Z,9.73
2022-12-18T05:45:08.905Z,9.67
2022-12-18T05:47:36.615Z,8.10
2022-12-18T05:50:04.287Z,9.17
2022-12-18T05:52:32.769Z,9.40
2022-12-18T05:55:01.162Z,9.47
2022-12-18T05:57:28.823Z,7.63
2022-12-18T05:59:57.895Z,9.83
2022-12-18T06:02:25.725Z,9.80
2022-12-18T06:04:53.408Z,8.87
2022-12-18T06:07:21.023Z,9.37
2022-12-18T06:09:48.712Z,9.00
2022-12-18T06:12:16.718Z,9.77
2022-12-18T06:14:44.798Z,9.40
2022-12-18T06:17:14.003Z,9.83
2022-12-18T06:19:41.621Z,11.33
2022-12-18T06:22:09.262Z,10.90
2022-12-18T06:24:37.066Z,9.40
2022-12-18T06:27:04.701Z,9.27
2022-12-18T06:29:32.345Z,8.87
2022-12-18T06:32:00.080Z,10.70
2022-12-18T06:34:29.261Z,10.03
2022-12-18T06:36:56.902Z,10.30
2022-12-18T06:39:24.726Z,8.40
2022-12-18T06:41:52.432Z,9.50
2022-12-18T06:44:20.149Z,10.47
2022-12-18T06:46:47.933Z,9.43
2022-12-18T06:49:16.955Z,9.20
2022-12-18T06:51:45.963Z,8.07
2022-12-18T06:54:15.074Z,9.47
2022-12-18T06:56:42.724Z,10.83
2022-12-18T06:59:10.377Z,9.93
2022-12-18T07:01:38.160Z,9.83
2022-12-18T07:04:06.157Z,9.63
2022-12-18T07:06:33.818Z,10.07
2022-12-18T07:09:02.944Z,9.43
2022-12-18T07:11:30.541Z,8.13
2022-12-18T07:14:01.332Z,10.10
2022-12-18T07:16:30.246Z,9.07
2022-12-18T07:18:58.053Z,9.73
2022-12-18T07:21:26.246Z,10.03
2022-12-18T07:23:54.078Z,9.93
2022-12-18T07:26:23.546Z,9.10
2022-12-18T07:28:51.268Z,9.77
2022-12-18T07:31:21.561Z,10.63
2022-12-18T07:33:49.813Z,10.80
2022-12-18T07:36:17.763Z,10.93
2022-12-18T07:38:45.456Z,12.07
2022-12-18T07:41:14.020Z,10.93
2022-12-18T07:43:43.711Z,10.60
2022-12-18T07:46:13.494Z,10.77
2022-12-18T07:48:41.315Z,11.63
2022-12-18T07:51:09.441Z,11.00
2022-12-18T07:53:38.114Z,11.33
2022-12-18T07:58:56.313Z,10.80
2022-12-18T08:01:24.065Z,11.73
2022-12-18T08:03:52.502Z,13.07
2022-12-18T08:06:22.551Z,11.93
2022-12-18T08:08:52.598Z,12.70
2022-12-18T08:11:20.250Z,11.60
2022-12-18T08:13:49.163Z,11.27
2022-12-18T08:16:19.698Z,11.80
2022-12-18T08:18:48.378Z,12.93
2022-12-18T08:21:17.922Z,13.30
2022-12-18T08:23:46.003Z,14.77
2022-12-18T08:26:14.344Z,13.43
2022-12-18T08:28:42.515Z,13.40
2022-12-18T08:31:10.526Z,11.83
2022-12-18T08:33:41.468Z,13.13
2022-12-18T08:36:10.852Z,13.43
2022-12-18T08:38:38.646Z,13.37
2022-12-18T08:41:07.112Z,13.47
2022-12-18T08:43:52.756Z,12.43
2022-12-18T08:46:20.488Z,14.40
2022-12-18T08:48:49.714Z,14.80
2022-12-18T08:51:18.093Z,11.60
2022-12-18T08:53:46.618Z,11.70
2022-12-18T08:56:14.753Z,13.27
2022-12-18T08:58:42.524Z,12.80
2022-12-18T09:01:11.314Z,13.83
2022-12-18T09:03:39.646Z,13.10
2022-12-18T09:06:09.553Z,13.53
2022-12-18T09:08:37.912Z,10.93
2022-12-18T09:11:06.144Z,9.90
2022-12-18T09:13:33.797Z,12.83
2022-12-18T09:16:01.478Z,11.97
2022-12-18T09:18:29.185Z,10.33
2022-12-18T09:20:56.797Z,10.53
2022-12-18T09:23:25.826Z,11.13
2022-12-18T09:25:53.545Z,11.73
2022-12-18T09:28:21.247Z,10.80
2022-12-18T09:30:50.148Z,12.10
2022-12-18T09:33:18.371Z,10.17
2022-12-18T09:35:46.644Z,11.13
2022-12-18T09:38:15.019Z,10.57
2022-12-18T09:40:46.018Z,12.13
2022-12-18T09:43:17.277Z,10.17
2022-12-18T09:45:46.834Z,9.53
2022-12-18T09:48:17.975Z,11.43
2022-12-18T09:50:46.204Z,11.43
2022-12-18T09:53:15.625Z,11.47
2022-12-18T09:55:46.977Z,11.60
2022-12-18T09:58:18.514Z,11.40
2022-12-18T10:00:46.167Z,9.80
2022-12-18T10:03:14.893Z,10.33
2022-12-18T10:05:45.907Z,10.37
2022-12-18T10:08:15.494Z,9.77
2022-12-18T10:10:48.931Z,10.27
2022-12-18T10:13:23.678Z,10.13
2022-12-18T10:16:10.317Z,10.63
2022-12-18T10:18:43.917Z,10.47
2022-12-18T10:21:12.969Z,9.37
2022-12-18T10:23:48.015Z,10.20
2022-12-18T10:26:17.511Z,9.53
2022-12-18T10:28:46.190Z,9.93
2022-12-18T10:31:17.119Z,10.80
2022-12-18T10:33:44.931Z,8.33
2022-12-18T10:36:12.623Z,10.40
2022-12-18T10:38:40.597Z,9.73
2022-12-18T10:41:27.421Z,10.67
2022-12-18T10:44:10.190Z,10.27
2022-12-18T10:46:39.396Z,11.43
2022-12-18T10:49:07.021Z,11.70
2022-12-18T10:51:35.947Z,12.20
2022-12-18T10:54:06.375Z,12.47
2022-12-18T10:56:36.802Z,12.00
2022-12-18T10:59:06.125Z,11.00
2022-12-18T11:01:47.547Z,12.10
2022-12-18T11:04:18.298Z,11.43
2022-12-18T11:06:54.756Z,12.20
2022-12-18T11:09:23.156Z,12.50
2022-12-18T11:11:53.267Z,10.57
2022-12-18T11:14:24.003Z,10.60
2022-12-18T11:17:25.364Z,11.93
2022-12-18T11:19:43.409Z,10.83
2022-12-18T11:22:21.199Z,12.60
2022-12-18T11:25:29.484Z,10.27
2022-12-18T11:27:42.392Z,11.90
2022-12-18T11:30:10.924Z,14.20
2022-12-18T11:32:40.818Z,14.37
2022-12-18T11:35:16.365Z,13.10
2022-12-18T11:37:45.317Z,11.40
2022-12-18T11:40:15.652Z,12.33
2022-12-18T11:42:46.976Z,12.27
2022-12-18T11:45:28.673Z,11.40
2022-12-18T11:48:00.041Z,12.63
2022-12-18T11:50:30.660Z,12.53
2022-12-18T11:53:02.849Z,14.07
2022-12-18T11:55:39.264Z,12.07
2022-12-18T11:58:12.346Z,12.77
2022-12-18T12:00:45.078Z,11.93
2022-12-18T12:03:27.934Z,11.90
2022-12-18T12:06:00.563Z,12.47
2022-12-18T12:08:36.176Z,12.03
2022-12-18T12:11:08.876Z,10.73
2022-12-18T12:13:43.150Z,11.23
2022-12-18T12:16:16.631Z,13.37
2022-12-18T12:18:53.498Z,12.17
2022-12-18T12:21:26.982Z,11.00
2022-12-18T12:23:57.266Z,11.87
2022-12-18T12:26:28.662Z,11.33
2022-12-18T12:29:03.915Z,10.93
2022-12-18T12:31:37.393Z,12.27
2022-12-18T12:34:12.099Z,13.23
2022-12-18T12:36:43.468Z,12.00
2022-12-18T12:39:13.830Z,11.77
2022-12-18T12:41:58.319Z,13.27
2022-12-18T12:44:27.599Z,11.93
2022-12-18T12:46:59.366Z,12.13
2022-12-18T12:49:30.107Z,11.67
2022-12-18T12:52:01.151Z,12.17
2022-12-18T12:54:29.910Z,11.40
2022-12-18T12:57:01.838Z,11.00
2022-12-18T12:59:33.803Z,12.93
2022-12-18T13:02:05.546Z,13.77
2022-12-18T13:04:37.634Z,16.53
2022-12-18T13:07:08.699Z,17.60
2022-12-18T13:09:51.853Z,12.60
2022-12-18T13:12:36.847Z,13.37
2022-12-18T13:15:15.391Z,12.17
2022-12-18T13:17:43.097Z,11.73
2022-12-18T13:20:17.165Z,12.63
2022-12-18T13:22:47.054Z,11.63
2022-12-18T13:25:32.391Z,12.90
2022-12-18T13:28:12.569Z,12.13
2022-12-18T13:30:45.155Z,10.70
2022-12-18T13:33:31.313Z,12.03
2022-12-18T13:36:04.600Z,12.37
2022-12-18T13:38:36.504Z,11.93
2022-12-18T13:41:05.071Z,11.93
2022-12-18T13:43:38.631Z,12.13
2022-12-18T13:46:08.653Z,11.00
2022-12-18T13:48:39.499Z,12.37
2022-12-18T13:51:10.021Z,12.53
2022-12-18T13:53:41.058Z,13.37
2022-12-18T13:56:09.087Z,12.33
2022-12-18T13:58:36.722Z,12.37
2022-12-18T14:01:05.832Z,13.70
2022-12-18T14:03:33.693Z,13.80
2022-12-18T14:06:03.367Z,11.93
2022-12-18T14:08:35.376Z,13.90
2022-12-18T14:11:03.622Z,15.90
2022-12-18T14:13:33.079Z,13.90
2022-12-18T14:16:03.963Z,14.67
2022-12-18T14:18:36.528Z,12.13
2022-12-18T14:21:05.221Z,12.43
2022-12-18T14:23:35.557Z,12.93
2022-12-18T14:26:05.970Z,13.37
2022-12-18T14:28:34.263Z,11.73
2022-12-18T14:31:01.966Z,11.77
2022-12-18T14:33:29.950Z,12.00
2022-12-18T14:35:59.574Z,10.97
2022-12-18T14:38:29.447Z,11.03
2022-12-18T14:40:59.203Z,11.03
2022-12-18T14:43:27.228Z,11.63
2022-12-18T14:45:55.585Z,10.17
2022-12-18T14:48:24.479Z,10.47
2022-12-18T14:50:59.590Z,11.00
2022-12-18T14:53:34.131Z,10.90
2022-12-18T14:56:03.646Z,10.93
2022-12-18T14:58:31.275Z,10.50
2022-12-18T15:00:59.004Z,10.80
2022-12-18T15:03:27.161Z,10.07
2022-12-18T15:05:54.844Z,10.33
2022-12-18T15:08:33.276Z,11.40
2022-12-18T15:11:04.895Z,10.00
2022-12-18T15:13:35.383Z,10.53
2022-12-18T15:16:05.240Z,10.83
2022-12-18T15:18:34.858Z,9.07
2022-12-18T15:21:10.123Z,9.50
2022-12-18T15:23:38.782Z,9.40
2022-12-18T15:26:10.049Z,8.47
2022-12-18T15:28:39.357Z,10.00
2022-12-18T15:31:23.494Z,8.33
2022-12-18T15:34:04.218Z,9.77
2022-12-18T15:36:32.111Z,9.80
2022-12-18T15:39:05.100Z,9.27
2022-12-18T15:41:36.924Z,9.10
2022-12-18T15:44:03.965Z,10.00
2022-12-18T15:46:32.002Z,9.00
2022-12-18T15:49:02.546Z,10.13
2022-12-18T15:51:31.559Z,9.37
2022-12-18T15:54:00.997Z,9.23
2022-12-18T15:56:46.083Z,8.97
2022-12-18T15:59:16.121Z,10.80
2022-12-18T16:01:44.609Z,9.97
2022-12-18T16:04:13.776Z,9.77
2022-12-18T16:07:12.823Z,9.80
2022-12-18T16:09:29.740Z,9.47
2022-12-18T16:11:57.418Z,10.13
2022-12-18T16:14:27.632Z,9.90
2022-12-18T16:16:56.354Z,10.57
2022-12-18T16:19:24.530Z,10.70
2022-12-18T16:21:52.908Z,9.67
2022-12-18T16:24:22.919Z,9.80
2022-12-18T16:26:53.326Z,10.80
2022-12-18T16:29:25.647Z,11.77
2022-12-18T16:31:54.784Z,11.13
2022-12-18T16:34:23.960Z,11.73
2022-12-18T16:36:56.219Z,9.90
2022-12-18T16:39:26.743Z,11.07
2022-12-18T16:41:54.457Z,11.07
2022-12-18T16:44:22.927Z,11.27
2022-12-18T16:46:50.705Z,11.23
2022-12-18T16:49:20.206Z,11.03
2022-12-18T16:51:48.185Z,11.37
2022-12-18T16:54:19.043Z,10.97
2022-12-18T16:56:49.875Z,12.10
2022-12-18T16:59:17.724Z,11.80
2022-12-18T17:01:45.608Z,12.23
2022-12-18T17:04:13.333Z,11.30
2022-12-18T17:06:43.547Z,12.77
2022-12-18T17:09:13.963Z,12.80
2022-12-18T17:11:41.634Z,12.70
2022-12-18T17:14:10.923Z,13.50
2022-12-18T17:16:39.006Z,11.50
2022-12-18T17:19:13.560Z,10.50
2022-12-18T17:21:44.487Z,13.00
2022-12-18T17:24:12.121Z,11.20
2022-12-18T17:26:39.953Z,11.40
2022-12-18T17:29:07.674Z,12.73
2022-12-18T17:31:35.876Z,11.13
2022-12-18T17:34:04.175Z,11.33
2022-12-18T17:36:32.485Z,11.40
2022-12-18T17:39:02.017Z,15.10
2022-12-18T17:41:30.593Z,10.27
2022-12-18T17:43:59.227Z,11.73
2022-12-18T17:46:27.620Z,10.60
2022-12-18T17:48:56.634Z,11.60
2022-12-18T17:51:24.534Z,11.30
2022-12-18T17:53:52.221Z,11.20
2022-12-18T17:56:22.328Z,12.33
2022-12-18T17:58:50.919Z,11.53
2022-12-18T18:01:19.967Z,10.20
2022-12-18T18:03:49.222Z,11.27
2022-12-18T18:06:20.951Z,12.40
2022-12-18T18:08:48.645Z,11.03
2022-12-18T18:11:34.616Z,10.97
2022-12-18T18:14:05.537Z,11.33
2022-12-18T18:16:35.474Z,10.53
2022-12-18T18:19:04.968Z,12.73
2022-12-18T18:21:33.291Z,11.70
2022-12-18T18:24:02.436Z,11.47
2022-12-18T18:26:31.302Z,12.10
2022-12-18T18:28:59.355Z,11.27
2022-12-18T18:31:29.155Z,11.90
2022-12-18T18:33:57.342Z,12.23
2022-12-18T18:36:25.584Z,11.37
2022-12-18T18:38:53.524Z,10.73
2022-12-18T18:41:22.208Z,12.13
2022-12-18T18:43:49.857Z,11.50
2022-12-18T18:46:17.810Z,10.70
2022-12-18T18:48:46.861Z,11.37
2022-12-18T18:51:15.593Z,10.90
2022-12-18T18:53:50.105Z,12.33
2022-12-18T18:59:06.505Z,12.47
2022-12-18T19:01:34.277Z,11.97
2022-12-18T19:04:06.768Z,11.33
2022-12-18T19:06:34.503Z,12.60
2022-12-18T19:09:02.972Z,12.83
2022-12-18T19:11:48.547Z,12.80
2022-12-18T19:14:16.744Z,10.73
2022-12-18T19:16:45.813Z,13.20
2022-12-18T19:19:17.577Z,12.57
2022-12-18T19:21:45.522Z,13.07
2022-12-18T19:24:13.198Z,11.70
2022-12-18T19:26:40.930Z,13.17
2022-12-18T19:29:09.782Z,12.27
2022-12-18T19:31:37.823Z,12.03
2022-12-18T19:34:06.918Z,14.93
2022-12-18T19:36:36.690Z,12.97
2022-12-18T19:39:08.920Z,12.30
2022-12-18T19:41:36.519Z,12.40
2022-12-18T19:44:08.148Z,12.03
2022-12-18T19:46:37.158Z,13.10
2022-12-18T19:49:09.656Z,12.97
2022-12-18T19:51:39.654Z,13.40
2022-12-18T19:54:07.263Z,11.30
2022-12-18T19:56:35.815Z,10.97
2022-12-18T19:59:04.138Z,12.33
2022-12-18T20:01:32.385Z,11.63
2022-12-18T20:04:00.536Z,11.53
2022-12-18T20:06:31.046Z,13.07
2022-12-18T20:09:01.376Z,12.57
2022-12-18T20:11:29.474Z,12.40
2022-12-18T20:13:57.301Z,11.93
2022-12-18T20:16:25.114Z,12.70
2022-12-18T20:18:56.129Z,10.33
2022-12-18T20:21:24.071Z,11.57
2022-12-18T20:23:52.029Z,11.60
2022-12-18T20:26:21.063Z,11.33
2022-12-18T20:28:48.774Z,10.97
2022-12-18T20:31:16.400Z,12.47
2022-12-18T20:33:44.692Z,12.43
2022-12-18T20:36:21.442Z,12.70
2022-12-18T20:38:51.181Z,12.33
2022-12-18T20:41:24.449Z,11.27
2022-12-18T20:43:53.463Z,10.97
2022-12-18T20:46:21.123Z,11.00
2022-12-18T20:48:48.942Z,13.67
2022-12-18T20:51:17.846Z,12.33
2022-12-18T20:53:46.299Z,12.67
2022-12-18T20:56:20.149Z,13.37
2022-12-18T20:58:49.388Z,12.40
2022-12-18T21:01:19.610Z,14.40
2022-12-18T21:03:48.286Z,13.33
2022-12-18T21:06:16.717Z,11.83
2022-12-18T21:08:44.450Z,13.07
2022-12-18T21:11:36.518Z,12.47
2022-12-18T21:14:03.301Z,12.97
2022-12-18T21:16:33.061Z,13.20
2022-12-18T21:19:00.732Z,14.53
2022-12-18T21:21:28.579Z,12.23
2022-12-18T21:23:56.236Z,11.77
2022-12-18T21:26:24.680Z,11.80
2022-12-18T21:28:55.138Z,12.17
2022-12-18T21:31:23.581Z,13.83
2022-12-18T21:33:53.179Z,13.03
2022-12-18T21:36:26.010Z,14.10
2022-12-18T21:38:54.155Z,13.13
2022-12-18T21:41:42.338Z,12.33
2022-12-18T21:44:12.715Z,13.40
2022-12-18T21:46:41.468Z,12.47
2022-12-18T21:49:10.970Z,13.17
2022-12-18T21:51:38.976Z,13.50
2022-12-18T21:54:06.841Z,12.70
2022-12-18T21:56:44.442Z,12.77
2022-12-18T21:59:13.190Z,14.50
2022-12-18T22:01:41.004Z,12.90
2022-12-18T22:04:10.318Z,12.03
2022-12-18T22:06:38.394Z,12.13
2022-12-18T22:09:06.126Z,12.27
2022-12-18T22:11:33.961Z,13.43
2022-12-18T22:14:01.638Z,12.43
2022-12-18T22:16:30.182Z,13.03
2022-12-18T22:18:57.831Z,13.00
2022-12-18T22:21:29.544Z,12.93
2022-12-18T22:23:58.041Z,12.80
2022-12-18T22:26:26.684Z,13.47
2022-12-18T22:29:12.183Z,12.87
2022-12-18T22:31:40.125Z,13.00
2022-12-18T22:34:08.268Z,12.73
2022-12-18T22:36:38.315Z,13.13
2022-12-18T22:39:07.550Z,13.77
2022-12-18T22:41:35.689Z,13.33
2022-12-18T22:44:03.344Z,12.70
2022-12-18T22:46:32.996Z,12.13
2022-12-18T22:49:00.676Z,13.63
2022-12-18T22:51:28.382Z,12.00
2022-12-18T22:53:57.389Z,12.73
2022-12-18T22:56:25.142Z,12.83
2022-12-18T22:58:53.334Z,13.67
2022-12-18T23:01:22.275Z,12.63
2022-12-18T23:03:50.485Z,13.03
2022-12-18T23:06:18.527Z,13.80
2022-12-18T23:08:47.910Z,14.43
2022-12-18T23:11:20.146Z,13.67
2022-12-18T23:13:47.981Z,12.70
2022-12-18T23:16:16.282Z,12.63
2022-12-18T23:18:44.182Z,13.33
2022-12-18T23:21:12.879Z,12.77
2022-12-18T23:23:41.915Z,13.80
2022-12-18T23:26:11.155Z,12.47
2022-12-18T23:28:40.646Z,13.63
2022-12-18T23:31:09.191Z,12.87
2022-12-18T23:33:36.859Z,13.87
2022-12-18T23:36:05.191Z,13.03
2022-12-18T23:38:33.263Z,13.53
2022-12-18T23:41:01.118Z,13.83
2022-12-18T23:43:29.655Z,13.07
2022-12-18T23:45:58.700Z,12.13
2022-12-18T23:48:26.325Z,12.80
2022-12-18T23:50:53.959Z,13.67
2022-12-18T23:53:21.617Z,13.87
2022-12-18T23:55:49.548Z,12.13
2022-12-18T23:58:20.180Z,13.07
